Dennistown, Maine
Current Conditions -  °F | °C
As of 11:00 PM on Tuesday 25 Nov 2014 (Local Time) from CYSC Reporting Station
Overcast Overcast  
Wind Chill: 32°   Ceiling: 4000
Heat Index: 39°   Visibility: 9mi
Dew Point: 27°   Wind: 13mph
Humidity: 61%   Direction: 260°W
Pressure: 30"   Gusts: 26mph
Location:  45.7142°N, 70.304°W
Report Text: CYSC 260400Z AUTO 26011G23KT 9SM BKN040 BKN047 OVC065 04/M03 A3000 RMK PRESRR SLP167
Loading
Personal Weather Stations






























Interactive Weather Map New forecast layout! Learn more

10-Day Weather Forecast

Advertisements
Track Severe Weather on mobile